Time;durP1;ratioP1;P1;durP2;ratioP2;P2;SDS_P1;SDS_P2;PMS_P1;PMS_P2;Temp;Humidity;BMP_temperature;BMP_pressure;BME280_temperature;BME280_humidity;BME280_pressure;Samples;Min_cycle;Max_cycle;Signal;HPM_P1;HPM_P2
2023/03/20 00:00:28;;;;;;;17.92;4.97;;;24.70;99.90;;;;;;5009394;28;20788;-78
2023/03/20 00:02:59;;;;;;;13.43;4.63;;;24.70;99.90;;;;;;5009229;28;20205;-78
2023/03/20 00:05:33;;;;;;;21.65;4.43;;;24.60;99.90;;;;;;5012720;28;20264;-79
2023/03/20 00:08:04;;;;;;;14.70;3.83;;;24.50;99.90;;;;;;5014572;28;20201;-78
2023/03/20 00:10:39;;;;;;;13.48;4.25;;;24.40;99.90;;;;;;5009272;28;20873;-77
2023/03/20 00:13:14;;;;;;;13.18;3.95;;;24.50;99.90;;;;;;5010221;28;20730;-78
2023/03/20 00:15:46;;;;;;;17.25;4.32;;;24.40;99.90;;;;;;5007219;28;20212;-78
2023/03/20 00:18:19;;;;;;;17.85;4.00;;;24.50;99.90;;;;;;5012809;28;20212;-77
2023/03/20 00:20:52;;;;;;;12.55;3.75;;;24.40;99.90;;;;;;5008237;28;20229;-76
2023/03/20 00:23:24;;;;;;;14.82;3.67;;;24.30;99.90;;;;;;5006478;28;20193;-77
2023/03/20 00:25:55;;;;;;;17.63;4.00;;;24.30;99.90;;;;;;5011295;28;20197;-78
2023/03/20 00:28:44;;;;;;;15.70;3.60;;;24.30;99.90;;;;;;5013989;28;20201;-78
2023/03/20 00:31:28;;;;;;;15.35;3.88;;;24.20;99.90;;;;;;5013576;28;20205;-79
2023/03/20 00:34:02;;;;;;;13.18;3.22;;;24.30;99.90;;;;;;5011407;28;20213;-77
2023/03/20 00:36:35;;;;;;;15.27;3.58;;;24.20;99.90;;;;;;5011700;28;20205;-77
2023/03/20 00:39:07;;;;;;;14.00;3.67;;;24.20;99.90;;;;;;5008627;28;20221;-78
2023/03/20 00:41:44;;;;;;;13.05;3.22;;;24.10;99.90;;;;;;5008187;28;20224;-79
2023/03/20 00:44:23;;;;;;;12.40;2.88;;;24.10;99.90;;;;;;5009074;28;20205;-78
2023/03/20 00:46:58;;;;;;;13.05;3.10;;;24.00;99.90;;;;;;5010921;28;20193;-79
2023/03/20 00:49:31;;;;;;;12.75;3.05;;;23.80;99.90;;;;;;5008214;28;20224;-79
2023/03/20 00:52:05;;;;;;;12.63;3.05;;;23.90;99.90;;;;;;5008936;28;20237;-79
2023/03/20 00:54:36;;;;;;;16.80;2.92;;;23.70;99.90;;;;;;5007542;28;20205;-78
2023/03/20 00:57:10;;;;;;;11.55;3.15;;;23.60;99.90;;;;;;5008400;28;20288;-79
2023/03/20 00:59:45;;;;;;;15.43;3.15;;;23.60;99.90;;;;;;5006871;28;20227;-80
2023/03/20 01:02:17;;;;;;;14.20;3.38;;;23.70;99.90;;;;;;5008520;28;20277;-78
2023/03/20 01:04:49;;;;;;;13.73;3.15;;;23.70;99.90;;;;;;5008299;28;20696;-79
2023/03/20 01:07:22;;;;;;;14.50;2.90;;;23.70;99.90;;;;;;5015973;28;20205;-79
2023/03/20 01:09:56;;;;;;;12.75;3.35;;;23.60;99.90;;;;;;5014418;28;20546;-79
2023/03/20 01:12:27;;;;;;;12.40;3.28;;;23.60;99.90;;;;;;5034686;28;20790;-78
2023/03/20 01:14:59;;;;;;;19.05;3.95;;;23.60;99.90;;;;;;5030149;28;20703;-80
2023/03/20 01:17:31;;;;;;;12.70;3.13;;;23.60;99.90;;;;;;5035328;28;20303;-80
2023/03/20 01:20:02;;;;;;;14.88;3.30;;;23.50;99.90;;;;;;5029522;28;20207;-80
2023/03/20 01:22:35;;;;;;;13.48;3.20;;;23.60;99.90;;;;;;5034043;28;20219;-79
2023/03/20 01:25:07;;;;;;;14.20;3.17;;;23.60;99.90;;;;;;5036147;28;20618;-76
2023/03/20 01:27:38;;;;;;;14.48;2.80;;;23.70;99.90;;;;;;5029525;28;20197;-77
2023/03/20 01:30:19;;;;;;;11.48;3.05;;;23.70;99.90;;;;;;5042465;28;20201;-79
2023/03/20 01:32:50;;;;;;;10.35;2.70;;;23.70;99.90;;;;;;5041360;28;20196;-78
2023/03/20 01:35:24;;;;;;;13.88;3.05;;;23.80;99.90;;;;;;5036943;28;20668;-78
2023/03/20 01:37:57;;;;;;;13.35;2.70;;;23.70;99.90;;;;;;5040127;28;20197;-79
2023/03/20 01:40:37;;;;;;;11.20;2.50;;;23.60;99.90;;;;;;5039625;28;20224;-78
2023/03/20 01:43:15;;;;;;;14.55;2.70;;;23.70;99.90;;;;;;5036587;28;20197;-78
2023/03/20 01:45:54;;;;;;;17.38;3.28;;;23.70;99.90;;;;;;5030855;28;20579;-78
2023/03/20 01:48:28;;;;;;;15.63;2.90;;;23.70;99.90;;;;;;5037939;28;20205;-78
2023/03/20 01:50:59;;;;;;;14.02;2.78;;;23.90;99.90;;;;;;5038875;28;20682;-78
2023/03/20 01:53:33;;;;;;;8.85;2.50;;;23.90;99.90;;;;;;5027255;28;20679;-78
2023/03/20 01:56:05;;;;;;;12.85;2.58;;;23.90;99.90;;;;;;5034485;28;21055;-77
2023/03/20 01:58:39;;;;;;;10.40;2.80;;;23.90;99.90;;;;;;5046573;28;20204;-79
2023/03/20 02:01:13;;;;;;;13.00;3.08;;;23.80;99.90;;;;;;5039609;28;20224;-79
2023/03/20 02:03:47;;;;;;;9.15;2.67;;;23.90;99.90;;;;;;5037048;28;20663;-79
2023/03/20 02:06:19;;;;;;;14.27;3.47;;;23.90;99.90;;;;;;5045983;28;20204;-79
2023/03/20 02:08:52;;;;;;;13.18;3.15;;;23.90;99.90;;;;;;5032921;28;20541;-79
2023/03/20 02:11:26;;;;;;;12.18;2.53;;;24.00;99.90;;;;;;5041213;28;20209;-78
2023/03/20 02:14:01;;;;;;;13.73;2.72;;;23.90;99.90;;;;;;5033108;28;20254;-79
2023/03/20 02:16:32;;;;;;;13.20;2.60;;;23.90;99.90;;;;;;5044383;28;20218;-79
2023/03/20 02:19:03;;;;;;;9.15;1.90;;;24.10;99.90;;;;;;5042557;28;20205;-78
2023/03/20 02:22:29;;;;;;;15.45;2.65;;;24.10;99.90;;;;;;5039442;28;20235;-79
2023/03/20 02:25:48;;;;;;;9.15;2.08;;;24.10;99.90;;;;;;4950192;28;20208;-80
2023/03/20 02:29:02;;;;;;;9.55;2.13;;;24.20;99.90;;;;;;4960127;28;20666;-79
2023/03/20 02:32:02;;;;;;;12.55;2.35;;;24.30;99.90;;;;;;4951694;28;20210;-78
2023/03/20 02:35:17;;;;;;;8.20;2.22;;;24.40;99.90;;;;;;5043421;28;20597;-78
2023/03/20 02:38:08;;;;;;;10.98;2.50;;;24.40;99.90;;;;;;5037921;28;20201;-77
2023/03/20 02:40:48;;;;;;;11.20;2.33;;;24.30;99.90;;;;;;5037708;28;20224;-78
2023/03/20 02:43:24;;;;;;;9.20;2.28;;;24.30;99.90;;;;;;5036168;28;20271;-78
2023/03/20 02:46:00;;;;;;;12.20;2.50;;;24.30;99.90;;;;;;5044260;28;20203;-78
2023/03/20 02:48:41;;;;;;;9.73;2.65;;;24.30;99.90;;;;;;5039726;28;21167;-78
2023/03/20 02:51:21;;;;;;;10.77;2.15;;;24.40;99.90;;;;;;5036279;28;20664;-79
2023/03/20 02:53:58;;;;;;;12.07;2.40;;;24.40;99.90;;;;;;5028372;28;20696;-79
2023/03/20 02:56:39;;;;;;;10.95;2.25;;;24.50;99.90;;;;;;5043395;28;20591;-78
2023/03/20 02:59:21;;;;;;;9.73;2.08;;;24.60;99.90;;;;;;5037151;28;20293;-78
2023/03/20 03:01:56;;;;;;;11.32;2.30;;;24.60;99.90;;;;;;5042156;28;20225;-78
2023/03/20 03:04:31;;;;;;;11.63;2.60;;;24.50;99.90;;;;;;5044402;28;20714;-78
2023/03/20 03:07:05;;;;;;;13.88;2.90;;;24.50;99.90;;;;;;5048901;28;20287;-78
2023/03/20 03:09:42;;;;;;;14.00;2.42;;;24.50;99.90;;;;;;5047277;28;20200;-78
2023/03/20 03:12:17;;;;;;;10.68;2.75;;;24.50;99.90;;;;;;5028658;28;20201;-78
2023/03/20 03:14:51;;;;;;;11.63;2.60;;;24.60;99.90;;;;;;5026876;28;20197;-79
2023/03/20 03:17:26;;;;;;;8.50;2.25;;;24.50;99.90;;;;;;5028325;28;20212;-79
2023/03/20 03:20:00;;;;;;;11.40;2.10;;;24.60;99.90;;;;;;5030038;28;20216;-78
2023/03/20 03:22:31;;;;;;;8.57;1.90;;;24.60;99.90;;;;;;5037125;28;20245;-78
2023/03/20 03:25:04;;;;;;;11.15;2.13;;;24.50;99.90;;;;;;5042695;28;20208;-78
2023/03/20 03:27:39;;;;;;;14.52;2.67;;;24.50;99.90;;;;;;5046349;28;20200;-79
2023/03/20 03:30:16;;;;;;;12.30;2.33;;;24.50;99.90;;;;;;5040040;28;20205;-78
2023/03/20 03:32:51;;;;;;;9.32;2.67;;;24.60;99.90;;;;;;5032198;28;20216;-76
2023/03/20 03:35:23;;;;;;;13.88;2.75;;;24.70;99.90;;;;;;5034409;28;20227;-80
2023/03/20 03:38:03;;;;;;;9.20;2.35;;;24.70;99.90;;;;;;5038127;28;20197;-79
2023/03/20 03:40:42;;;;;;;10.63;2.13;;;24.70;99.90;;;;;;5041421;28;20240;-79
2023/03/20 03:43:22;;;;;;;8.90;2.05;;;24.60;99.90;;;;;;5029150;28;20211;-79
2023/03/20 03:45:58;;;;;;;11.75;2.42;;;24.50;99.90;;;;;;5039980;28;20209;-79
2023/03/20 03:48:33;;;;;;;9.38;1.90;;;24.50;99.90;;;;;;5035824;28;20190;-78
2023/03/20 03:51:09;;;;;;;8.52;2.13;;;24.50;99.90;;;;;;5030752;28;20196;-80
2023/03/20 03:53:47;;;;;;;11.77;2.42;;;24.50;99.90;;;;;;5036195;28;20204;-80
2023/03/20 03:56:25;;;;;;;13.82;2.53;;;24.50;99.90;;;;;;5039564;28;20240;-79
2023/03/20 03:58:59;;;;;;;8.70;2.40;;;24.40;99.90;;;;;;5034841;28;20223;-79
2023/03/20 04:01:35;;;;;;;12.95;2.55;;;24.40;99.90;;;;;;5039910;28;20602;-78
2023/03/20 04:04:10;;;;;;;14.18;2.78;;;24.30;99.90;;;;;;5026356;28;20331;-79
2023/03/20 04:06:42;;;;;;;7.70;1.75;;;24.40;99.90;;;;;;5030202;28;20205;-79
2023/03/20 04:09:15;;;;;;;9.15;2.88;;;24.40;99.90;;;;;;5022012;28;20200;-81
2023/03/20 04:11:51;;;;;;;9.48;2.33;;;24.40;99.90;;;;;;5031361;28;20208;-80
2023/03/20 04:14:22;;;;;;;9.93;2.45;;;24.40;99.90;;;;;;5027970;28;21412;-79
2023/03/20 04:16:56;;;;;;;8.00;2.17;;;24.50;99.90;;;;;;5036893;28;20236;-80
2023/03/20 04:19:27;;;;;;;11.90;2.38;;;24.50;99.90;;;;;;5027103;28;20205;-80
2023/03/20 04:21:58;;;;;;;8.05;1.77;;;24.50;99.90;;;;;;5027979;28;20235;-78
2023/03/20 04:24:29;;;;;;;9.95;2.28;;;24.50;99.90;;;;;;5028094;28;20296;-80
2023/03/20 04:27:03;;;;;;;9.65;2.13;;;24.50;99.90;;;;;;5027020;28;20203;-78
2023/03/20 04:29:35;;;;;;;10.02;2.38;;;24.40;99.90;;;;;;5029018;28;20529;-79
2023/03/20 04:32:06;;;;;;;8.10;2.08;;;24.30;99.90;;;;;;5031630;28;20204;-77
2023/03/20 04:34:37;;;;;;;9.88;2.30;;;24.30;99.90;;;;;;5034578;28;20197;-78
2023/03/20 04:37:09;;;;;;;9.27;2.40;;;24.30;99.90;;;;;;5023323;28;20202;-78
2023/03/20 04:39:41;;;;;;;11.00;2.15;;;24.20;99.90;;;;;;5042127;28;20220;-79
2023/03/20 04:42:14;;;;;;;8.73;1.70;;;24.10;99.90;;;;;;5034646;28;20220;-80
2023/03/20 04:44:45;;;;;;;9.43;1.63;;;24.10;99.90;;;;;;5026524;28;20327;-80
2023/03/20 04:47:16;;;;;;;9.73;2.00;;;24.20;99.90;;;;;;5028750;28;20200;-77
2023/03/20 04:49:48;;;;;;;11.98;2.65;;;24.10;99.90;;;;;;5032530;28;20185;-78
2023/03/20 04:52:19;;;;;;;11.75;2.10;;;23.90;99.90;;;;;;5024935;28;20193;-80
2023/03/20 04:54:50;;;;;;;11.27;2.22;;;23.80;99.90;;;;;;5024503;28;20213;-80
2023/03/20 04:57:23;;;;;;;8.52;1.83;;;23.80;99.90;;;;;;5025866;28;20243;-79
2023/03/20 04:59:55;;;;;;;9.43;2.13;;;23.80;99.90;;;;;;5027959;28;20193;-79
2023/03/20 05:02:26;;;;;;;7.38;1.73;;;23.90;99.90;;;;;;5027955;28;20257;-80
2023/03/20 05:04:57;;;;;;;8.82;1.92;;;24.00;99.90;;;;;;5027578;28;20218;-78
2023/03/20 05:07:28;;;;;;;7.85;2.00;;;24.10;99.90;;;;;;5025906;28;20197;-79
2023/03/20 05:10:00;;;;;;;9.00;1.95;;;24.10;99.90;;;;;;5032292;28;20204;-79
2023/03/20 05:12:33;;;;;;;6.70;1.63;;;24.20;99.90;;;;;;5027679;28;20201;-79
2023/03/20 05:15:04;;;;;;;7.30;1.63;;;24.30;99.90;;;;;;5030526;28;20224;-80
2023/03/20 05:17:35;;;;;;;8.95;1.83;;;24.20;99.90;;;;;;5035822;28;20201;-78
2023/03/20 05:20:07;;;;;;;9.20;2.10;;;24.30;99.90;;;;;;5036560;28;20584;-79
2023/03/20 05:22:38;;;;;;;6.32;1.63;;;24.30;99.90;;;;;;5030330;28;20260;-79
2023/03/20 05:25:10;;;;;;;7.75;1.77;;;24.20;99.90;;;;;;5027805;28;20656;-79
2023/03/20 05:27:43;;;;;;;12.30;2.40;;;24.30;99.90;;;;;;5028573;28;20197;-80
2023/03/20 05:30:15;;;;;;;10.30;2.35;;;24.20;99.90;;;;;;5025685;28;20201;-79
2023/03/20 05:32:46;;;;;;;8.57;2.15;;;24.10;99.90;;;;;;5031317;28;20213;-79
2023/03/20 05:35:18;;;;;;;14.02;2.63;;;24.10;99.90;;;;;;5031082;28;20220;-80
2023/03/20 05:37:49;;;;;;;10.90;2.08;;;24.10;99.90;;;;;;5025709;28;20201;-79
2023/03/20 05:40:23;;;;;;;10.82;2.17;;;24.10;99.90;;;;;;5027451;28;20200;-80
2023/03/20 05:42:56;;;;;;;9.40;1.83;;;24.00;99.90;;;;;;5034660;28;20707;-80
2023/03/20 05:45:27;;;;;;;10.00;2.20;;;23.90;99.90;;;;;;5028684;28;20198;-80
2023/03/20 05:47:58;;;;;;;8.20;1.90;;;23.90;99.90;;;;;;5023826;28;20198;-80
2023/03/20 05:50:29;;;;;;;9.63;2.05;;;23.90;99.90;;;;;;5029134;28;20204;-80
2023/03/20 05:53:00;;;;;;;13.98;2.30;;;24.00;99.90;;;;;;5033811;28;20198;-80
2023/03/20 05:55:31;;;;;;;11.00;2.22;;;24.00;99.90;;;;;;5025762;28;20227;-80
2023/03/20 05:58:05;;;;;;;10.05;2.05;;;24.00;99.90;;;;;;5026961;28;20198;-80
2023/03/20 06:00:36;;;;;;;8.27;1.70;;;24.10;99.90;;;;;;5028811;28;20206;-79
2023/03/20 06:03:07;;;;;;;10.18;1.98;;;24.10;99.90;;;;;;5027978;28;20229;-80
2023/03/20 06:05:39;;;;;;;11.15;2.25;;;24.10;99.90;;;;;;5031264;28;20238;-78
2023/03/20 06:08:13;;;;;;;7.03;1.75;;;24.20;99.90;;;;;;5027363;28;20220;-78
2023/03/20 06:10:44;;;;;;;8.68;1.85;;;24.10;99.90;;;;;;5032223;28;20206;-78
2023/03/20 06:13:17;;;;;;;11.25;2.45;;;24.20;99.90;;;;;;5036915;28;20209;-79
2023/03/20 06:15:48;;;;;;;9.18;2.25;;;24.30;99.90;;;;;;5024261;28;20217;-79
2023/03/20 06:18:19;;;;;;;7.22;1.58;;;24.30;99.90;;;;;;5035040;28;20587;-78
2023/03/20 06:20:55;;;;;;;7.97;1.95;;;24.20;99.90;;;;;;5036043;28;20205;-78
2023/03/20 06:23:26;;;;;;;11.07;1.95;;;24.30;99.90;;;;;;5028660;28;20224;-78
2023/03/20 06:25:57;;;;;;;6.18;1.70;;;24.30;99.90;;;;;;5038408;28;20203;-78
2023/03/20 06:28:30;;;;;;;9.45;2.40;;;24.30;99.90;;;;;;5038757;28;20204;-78
2023/03/20 06:31:01;;;;;;;8.75;2.38;;;24.40;99.90;;;;;;5030421;28;20680;-79
2023/03/20 06:33:32;;;;;;;8.40;2.78;;;24.50;99.90;;;;;;5028589;28;20210;-79
2023/03/20 06:36:04;;;;;;;14.30;2.40;;;24.40;99.90;;;;;;5032956;28;20189;-80
2023/03/20 06:38:38;;;;;;;6.15;1.77;;;24.40;99.90;;;;;;5036862;28;20196;-79
2023/03/20 06:41:09;;;;;;;9.07;2.38;;;24.40;99.90;;;;;;5029005;28;20204;-79
2023/03/20 06:43:43;;;;;;;9.45;2.28;;;24.40;99.90;;;;;;5035093;28;20246;-80
2023/03/20 06:46:14;;;;;;;8.18;2.17;;;24.40;99.90;;;;;;5033393;28;20738;-78
2023/03/20 06:48:45;;;;;;;7.95;2.00;;;24.40;99.90;;;;;;5032981;28;20595;-79
2023/03/20 06:51:16;;;;;;;8.00;1.98;;;24.30;99.90;;;;;;5029092;28;20221;-79
2023/03/20 06:53:48;;;;;;;5.85;1.85;;;24.40;99.90;;;;;;5034961;28;20220;-78
2023/03/20 06:56:19;;;;;;;7.03;1.67;;;24.40;99.90;;;;;;5039874;28;20255;-78
2023/03/20 06:58:52;;;;;;;11.10;2.05;;;24.30;99.90;;;;;;5032082;28;20224;-79
2023/03/20 07:01:23;;;;;;;7.80;2.00;;;24.40;99.90;;;;;;5027133;28;20200;-79
2023/03/20 07:03:54;;;;;;;8.52;2.30;;;24.30;99.90;;;;;;5026325;28;20272;-79
2023/03/20 07:06:25;;;;;;;10.73;2.38;;;24.40;99.90;;;;;;5018887;28;20684;-79
2023/03/20 07:08:56;;;;;;;12.10;2.08;;;24.40;99.90;;;;;;5028155;28;20718;-79
2023/03/20 07:11:27;;;;;;;7.47;1.50;;;24.40;99.90;;;;;;5019256;28;20588;-79
2023/03/20 07:14:00;;;;;;;9.07;2.05;;;24.40;99.90;;;;;;5020096;28;20229;-80
2023/03/20 07:16:31;;;;;;;11.32;1.98;;;24.30;99.90;;;;;;5023271;28;20206;-79
2023/03/20 07:19:03;;;;;;;9.27;2.03;;;24.30;99.90;;;;;;5015949;28;20190;-80
2023/03/20 07:21:34;;;;;;;8.02;2.00;;;24.20;99.90;;;;;;5018712;28;20771;-79
2023/03/20 07:24:05;;;;;;;10.05;2.17;;;24.30;99.90;;;;;;5020412;28;20232;-77
2023/03/20 07:26:37;;;;;;;9.60;2.28;;;24.30;99.90;;;;;;5020810;28;20218;-78
2023/03/20 07:29:10;;;;;;;8.70;2.17;;;24.30;99.90;;;;;;5026922;28;20304;-80
2023/03/20 07:31:41;;;;;;;9.25;2.20;;;24.30;99.90;;;;;;5013762;28;20213;-79
2023/03/20 07:34:13;;;;;;;8.35;2.10;;;24.30;99.90;;;;;;5016477;28;20197;-77
2023/03/20 07:36:44;;;;;;;9.20;2.45;;;24.30;99.90;;;;;;5012845;28;20280;-77
2023/03/20 07:39:17;;;;;;;11.85;2.30;;;24.30;99.90;;;;;;5029040;28;24183;-76
2023/03/20 07:41:48;;;;;;;10.75;2.40;;;24.30;99.90;;;;;;5024634;28;20220;-76
2023/03/20 07:44:22;;;;;;;8.15;2.05;;;24.30;99.90;;;;;;5023451;28;20197;-77
2023/03/20 07:46:53;;;;;;;10.70;2.22;;;24.30;99.90;;;;;;5020044;28;20205;-78
2023/03/20 07:49:25;;;;;;;13.95;2.55;;;24.30;99.90;;;;;;5018809;28;20206;-78
2023/03/20 07:51:56;;;;;;;11.77;2.60;;;24.20;99.90;;;;;;5029155;28;20225;-77
2023/03/20 07:54:27;;;;;;;6.60;1.83;;;24.20;99.90;;;;;;5027529;28;20201;-76
2023/03/20 07:56:58;;;;;;;11.60;2.10;;;24.10;99.90;;;;;;5022365;28;20222;-76
2023/03/20 07:59:31;;;;;;;8.35;2.17;;;24.20;99.90;;;;;;5027836;28;20205;-77
2023/03/20 08:02:02;;;;;;;10.02;2.47;;;24.20;99.90;;;;;;5028499;28;20205;-77
2023/03/20 08:04:34;;;;;;;6.95;2.00;;;24.20;99.90;;;;;;5024258;28;20190;-78
2023/03/20 08:07:05;;;;;;;7.90;2.13;;;24.20;99.90;;;;;;5017729;28;20596;-78
2023/03/20 08:09:36;;;;;;;9.75;2.13;;;24.10;99.90;;;;;;5025085;28;20585;-78
2023/03/20 08:12:10;;;;;;;8.85;2.00;;;24.20;99.90;;;;;;5022756;28;20201;-77
2023/03/20 08:14:43;;;;;;;9.65;2.10;;;24.10;99.90;;;;;;5020613;28;20223;-77
2023/03/20 08:17:14;;;;;;;5.78;1.63;;;24.20;99.90;;;;;;5024368;28;20272;-77
2023/03/20 08:19:46;;;;;;;10.18;2.38;;;24.10;99.90;;;;;;5023972;28;20208;-77
2023/03/20 08:22:17;;;;;;;10.18;2.47;;;24.20;99.90;;;;;;5015168;28;20198;-77
2023/03/20 08:24:48;;;;;;;8.57;2.05;;;24.20;99.90;;;;;;5022656;28;20213;-77
2023/03/20 08:27:19;;;;;;;12.25;2.55;;;24.20;99.90;;;;;;5028905;28;20560;-77
2023/03/20 08:29:52;;;;;;;12.90;2.40;;;24.10;99.90;;;;;;5030018;28;20212;-77
2023/03/20 08:32:25;;;;;;;8.95;1.90;;;24.10;99.90;;;;;;5022704;28;20225;-78
2023/03/20 08:34:56;;;;;;;13.82;2.10;;;24.10;99.90;;;;;;5018175;28;20200;-79
2023/03/20 08:37:27;;;;;;;10.07;2.30;;;24.10;99.90;;;;;;5023041;28;20201;-79
2023/03/20 08:39:58;;;;;;;10.38;2.38;;;24.00;99.90;;;;;;5017926;28;20194;-79
2023/03/20 08:42:29;;;;;;;11.80;2.33;;;23.90;99.90;;;;;;5018910;28;20213;-79
2023/03/20 08:45:02;;;;;;;10.93;2.00;;;23.90;99.90;;;;;;5030688;28;20192;-79
2023/03/20 08:47:33;;;;;;;9.27;2.15;;;23.90;99.90;;;;;;5019981;28;20559;-79
2023/03/20 08:50:04;;;;;;;9.82;1.92;;;23.90;99.90;;;;;;5016971;28;20228;-79
2023/03/20 08:52:36;;;;;;;10.90;2.08;;;23.90;99.90;;;;;;5019483;28;20205;-79
2023/03/20 08:55:08;;;;;;;9.88;2.10;;;23.90;99.90;;;;;;5016203;28;20201;-79
2023/03/20 08:57:39;;;;;;;9.43;2.78;;;23.80;99.90;;;;;;5019046;28;20284;-80
2023/03/20 09:00:14;;;;;;;10.00;2.60;;;23.80;99.90;;;;;;5020754;28;20205;-78
2023/03/20 09:02:47;;;;;;;10.38;2.60;;;23.70;99.90;;;;;;5021060;28;20213;-80
2023/03/20 09:05:18;;;;;;;7.10;1.98;;;23.70;99.90;;;;;;5012572;28;20231;-79
2023/03/20 09:07:50;;;;;;;13.52;2.22;;;23.70;99.90;;;;;;5025494;28;20584;-79
2023/03/20 09:10:21;;;;;;;8.95;1.63;;;23.70;99.90;;;;;;5026242;28;20201;-78
2023/03/20 09:12:52;;;;;;;10.50;1.92;;;23.70;99.90;;;;;;5029082;28;20201;-79
2023/03/20 09:15:25;;;;;;;8.55;2.20;;;23.70;99.90;;;;;;5016962;28;20220;-81
2023/03/20 09:17:56;;;;;;;6.25;1.60;;;23.70;99.90;;;;;;5010657;28;20193;-78
2023/03/20 09:20:30;;;;;;;6.82;2.00;;;23.80;99.90;;;;;;5010926;28;20673;-79
2023/03/20 09:23:01;;;;;;;12.15;2.25;;;23.80;99.90;;;;;;5011386;28;20226;-79
2023/03/20 09:25:32;;;;;;;11.10;2.33;;;23.90;99.90;;;;;;5016879;28;20280;-80
2023/03/20 09:28:03;;;;;;;10.48;2.60;;;23.90;99.90;;;;;;5030369;28;20656;-78
2023/03/20 09:30:37;;;;;;;10.88;2.78;;;23.90;99.90;;;;;;5015650;28;20223;-80
2023/03/20 09:33:08;;;;;;;13.02;2.33;;;23.80;99.90;;;;;;5025907;28;20304;-78
2023/03/20 09:35:42;;;;;;;11.05;2.47;;;23.80;99.90;;;;;;5035229;28;20205;-79
2023/03/20 09:38:13;;;;;;;9.18;2.42;;;23.70;99.90;;;;;;5036943;28;20202;-79
2023/03/20 09:40:55;;;;;;;11.15;2.55;;;23.60;99.90;;;;;;5023500;28;20193;-78
2023/03/20 09:43:59;;;;;;;15.00;2.72;;;23.60;99.90;;;;;;5031019;28;20321;-80
2023/03/20 09:47:02;;;;;;;9.80;2.53;;;23.60;99.90;;;;;;5017836;28;20229;-80
2023/03/20 09:49:46;;;;;;;13.05;2.30;;;23.50;99.90;;;;;;5026672;28;20205;-81
2023/03/20 09:52:31;;;;;;;10.25;2.50;;;23.40;99.90;;;;;;5026192;28;20229;-79
2023/03/20 09:55:09;;;;;;;9.52;2.08;;;23.40;99.90;;;;;;5022950;28;20206;-80
2023/03/20 09:57:44;;;;;;;10.70;2.60;;;23.40;99.90;;;;;;5035777;28;20231;-79
2023/03/20 10:00:19;;;;;;;8.88;2.05;;;23.40;99.90;;;;;;5035513;28;20197;-78
2023/03/20 10:02:55;;;;;;;9.75;2.33;;;23.30;99.90;;;;;;5027527;28;20216;-78
2023/03/20 10:05:29;;;;;;;10.48;2.40;;;23.30;99.90;;;;;;5026739;28;20190;-80
2023/03/20 10:08:03;;;;;;;9.50;2.38;;;23.30;99.90;;;;;;5021381;28;20217;-78
2023/03/20 10:10:43;;;;;;;9.20;2.20;;;23.30;99.90;;;;;;5029364;28;20193;-80
2023/03/20 10:13:33;;;;;;;8.70;2.22;;;23.30;99.90;;;;;;5019516;28;20209;-79
2023/03/20 10:16:15;;;;;;;10.63;2.20;;;23.30;99.90;;;;;;5032596;28;20194;-80
2023/03/20 10:18:57;;;;;;;9.38;2.45;;;23.30;99.90;;;;;;5030108;28;20227;-79
2023/03/20 10:21:39;;;;;;;9.38;2.17;;;23.30;99.90;;;;;;5025500;28;20213;-81
2023/03/20 10:24:18;;;;;;;10.65;1.92;;;23.30;99.90;;;;;;5027175;28;20205;-79
2023/03/20 10:26:53;;;;;;;11.18;2.38;;;23.30;99.90;;;;;;5028573;28;20223;-80
2023/03/20 10:29:37;;;;;;;7.95;1.90;;;23.30;99.90;;;;;;5029699;28;20189;-78
2023/03/20 10:32:14;;;;;;;11.63;2.65;;;23.30;99.90;;;;;;5029270;28;20232;-79
2023/03/20 10:35:01;;;;;;;10.52;2.45;;;23.40;99.90;;;;;;5027217;28;20209;-78
2023/03/20 10:37:49;;;;;;;10.82;2.38;;;23.40;99.90;;;;;;5016921;28;20190;-77
2023/03/20 10:40:31;;;;;;;7.65;2.17;;;23.30;99.90;;;;;;5027690;28;20233;-79
2023/03/20 10:43:06;;;;;;;9.38;2.30;;;23.20;99.90;;;;;;5017931;28;20197;-80
2023/03/20 10:45:45;;;;;;;12.07;2.35;;;23.20;99.90;;;;;;5023161;28;20217;-78
2023/03/20 10:48:21;;;;;;;11.23;2.05;;;23.20;99.90;;;;;;5029426;28;20197;-79
2023/03/20 10:50:57;;;;;;;9.32;2.30;;;23.00;99.90;;;;;;5022532;28;20194;-79
2023/03/20 10:53:36;;;;;;;10.50;2.28;;;23.00;99.90;;;;;;5017181;28;20739;-79
2023/03/20 10:56:11;;;;;;;10.50;2.20;;;22.90;99.90;;;;;;5019338;28;20816;-79
2023/03/20 10:58:44;;;;;;;7.35;1.98;;;22.90;99.90;;;;;;5029944;28;20711;-79
2023/03/20 11:01:16;;;;;;;9.20;2.10;;;22.90;99.90;;;;;;5024986;28;20200;-79
2023/03/20 11:03:47;;;;;;;11.98;2.50;;;22.80;99.90;;;;;;5030026;28;20218;-79
2023/03/20 11:06:25;;;;;;;11.13;2.75;;;22.90;99.90;;;;;;5035783;28;20198;-79
2023/03/20 11:08:57;;;;;;;11.00;2.58;;;22.90;99.90;;;;;;5025641;28;20197;-80
2023/03/20 11:11:29;;;;;;;12.90;2.78;;;23.00;99.90;;;;;;5028065;28;20300;-79
2023/03/20 11:14:11;;;;;;;9.95;2.30;;;23.00;99.90;;;;;;5013645;28;20232;-79
2023/03/20 11:16:42;;;;;;;12.07;2.70;;;23.00;99.90;;;;;;5018072;28;20240;-81
2023/03/20 11:19:16;;;;;;;12.40;2.60;;;23.00;99.90;;;;;;5028047;28;20221;-80
2023/03/20 11:21:55;;;;;;;11.25;3.00;;;23.00;99.90;;;;;;5023708;28;20194;-80
2023/03/20 11:24:37;;;;;;;11.75;2.78;;;23.00;99.90;;;;;;5017340;28;20696;-79
2023/03/20 11:27:11;;;;;;;12.98;2.83;;;23.00;99.90;;;;;;5017563;28;20244;-78
2023/03/20 11:29:43;;;;;;;12.98;2.97;;;23.10;99.90;;;;;;5014773;28;20668;-79
2023/03/20 11:32:30;;;;;;;14.32;2.70;;;23.00;99.90;;;;;;5026652;28;20208;-80
2023/03/20 11:35:15;;;;;;;12.32;3.08;;;23.00;99.90;;;;;;5024268;28;20687;-79
2023/03/20 11:37:50;;;;;;;15.05;3.10;;;23.00;99.90;;;;;;5012907;28;20194;-79
2023/03/20 11:40:25;;;;;;;10.82;2.45;;;22.90;99.90;;;;;;5019766;28;20232;-78
2023/03/20 11:42:58;;;;;;;14.27;2.72;;;22.80;99.90;;;;;;5020711;28;20197;-78
2023/03/20 11:45:35;;;;;;;14.57;2.42;;;22.80;99.90;;;;;;5026799;28;20656;-78
2023/03/20 11:48:08;;;;;;;13.55;2.90;;;22.80;99.90;;;;;;5026853;28;20204;-77
2023/03/20 11:50:44;;;;;;;12.30;2.85;;;22.80;99.90;;;;;;5031945;28;20284;-78
2023/03/20 11:53:27;;;;;;;17.05;2.90;;;22.80;99.90;;;;;;5020816;28;20204;-78
2023/03/20 11:56:06;;;;;;;17.65;3.35;;;22.80;99.90;;;;;;5011891;28;20226;-78
2023/03/20 11:58:41;;;;;;;9.98;2.50;;;22.70;99.90;;;;;;5020467;28;20248;-79
2023/03/20 12:01:15;;;;;;;14.05;3.08;;;22.70;99.90;;;;;;5021543;28;20200;-79
2023/03/20 12:03:54;;;;;;;16.77;3.10;;;22.70;99.90;;;;;;5021194;28;20292;-78
2023/03/20 12:06:27;;;;;;;15.25;3.22;;;22.70;99.90;;;;;;5021780;28;20264;-78
2023/03/20 12:09:04;;;;;;;15.20;3.20;;;22.70;99.90;;;;;;5033112;28;20185;-78
2023/03/20 12:11:45;;;;;;;19.20;3.80;;;22.70;99.90;;;;;;5014197;28;20252;-78
2023/03/20 12:14:24;;;;;;;20.83;3.13;;;22.70;99.90;;;;;;5016474;28;20607;-77
2023/03/20 12:17:02;;;;;;;12.27;2.90;;;22.60;99.90;;;;;;5020686;28;20217;-78
2023/03/20 12:19:33;;;;;;;11.75;2.60;;;22.60;99.90;;;;;;5025878;28;20197;-78
2023/03/20 12:22:22;;;;;;;10.38;2.85;;;22.60;99.90;;;;;;5037838;28;20193;-79
2023/03/20 12:27:52;;;;;;;16.50;3.08;;;22.50;99.90;;;;;;5019250;28;20568;-78
2023/03/20 12:30:31;;;;;;;13.38;3.10;;;22.50;99.90;;;;;;5024590;28;20204;-78
2023/03/20 12:33:09;;;;;;;15.93;3.30;;;22.50;99.90;;;;;;5025414;28;20581;-78
2023/03/20 12:35:45;;;;;;;11.07;2.58;;;22.50;99.90;;;;;;5023097;28;20550;-78
2023/03/20 12:38:25;;;;;;;14.40;2.58;;;22.50;99.90;;;;;;5045692;22;20192;-77
2023/03/20 12:41:06;;;;;;;14.98;2.78;;;22.50;99.90;;;;;;5060848;28;20304;-78
2023/03/20 12:43:47;;;;;;;10.90;2.58;;;22.40;99.90;;;;;;5063827;28;20697;-78
2023/03/20 12:46:29;;;;;;;13.82;2.83;;;22.40;99.90;;;;;;5061098;28;20196;-78
2023/03/20 12:49:10;;;;;;;11.18;2.40;;;22.40;99.90;;;;;;5060059;28;20193;-78
2023/03/20 12:51:51;;;;;;;12.18;2.97;;;22.40;99.90;;;;;;5064732;28;20192;-78
2023/03/20 12:54:39;;;;;;;13.13;2.88;;;22.40;99.90;;;;;;5062351;28;20192;-78
2023/03/20 12:57:21;;;;;;;12.68;2.65;;;22.40;99.90;;;;;;5065722;28;20180;-78
2023/03/20 13:00:10;;;;;;;12.48;2.60;;;22.40;99.90;;;;;;5050296;28;20276;-77
2023/03/20 13:02:52;;;;;;;13.52;2.67;;;22.40;99.90;;;;;;5068246;28;20203;-78
2023/03/20 13:05:42;;;;;;;14.02;2.60;;;22.40;99.90;;;;;;5063173;28;20322;-78
2023/03/20 13:08:32;;;;;;;17.38;3.13;;;22.40;99.90;;;;;;5065290;28;20191;-77
2023/03/20 13:11:11;;;;;;;9.25;2.38;;;22.40;99.90;;;;;;5051806;28;20197;-78
2023/03/20 13:13:51;;;;;;;11.38;2.17;;;22.30;99.90;;;;;;5050242;28;20242;-77
2023/03/20 13:16:30;;;;;;;13.35;2.63;;;22.30;99.90;;;;;;5051739;28;20196;-77
2023/03/20 13:19:09;;;;;;;13.23;2.75;;;22.20;99.90;;;;;;5069630;28;20210;-79
2023/03/20 13:21:49;;;;;;;11.20;2.25;;;22.20;99.90;;;;;;5052112;28;20200;-79
2023/03/20 13:24:32;;;;;;;11.68;2.78;;;22.10;99.90;;;;;;5069238;28;20598;-79